sensor_id;sensor_type;location;lat;lon;timestamp;pressure;altitude;pressure_sealevel;temperature;humidity
71915;BME280;60387;49.994;14.660;2022-11-20T00:00:21;97323.69;;;-1.67;64.64
71915;BME280;60387;49.994;14.660;2022-11-20T00:02:54;97314.56;;;-1.71;63.73
71915;BME280;60387;49.994;14.660;2022-11-20T00:05:27;97325.19;;;-1.71;64.63
71915;BME280;60387;49.994;14.660;2022-11-20T00:08:01;97323.56;;;-1.72;64.23
71915;BME280;60387;49.994;14.660;2022-11-20T00:10:39;97317.69;;;-1.74;63.55
71915;BME280;60387;49.994;14.660;2022-11-20T00:13:12;97314.97;;;-1.79;64.23
71915;BME280;60387;49.994;14.660;2022-11-20T00:15:45;97323.94;;;-1.80;63.68
71915;BME280;60387;49.994;14.660;2022-11-20T00:18:19;97329.72;;;-1.83;63.66
71915;BME280;60387;49.994;14.660;2022-11-20T00:20:52;97320.84;;;-1.88;64.49
71915;BME280;60387;49.994;14.660;2022-11-20T00:23:26;97330.97;;;-1.85;64.55
71915;BME280;60387;49.994;14.660;2022-11-20T00:26:06;97326.50;;;-1.85;63.78
71915;BME280;60387;49.994;14.660;2022-11-20T00:28:40;97340.69;;;-1.79;64.08
71915;BME280;60387;49.994;14.660;2022-11-20T00:31:15;97334.66;;;-1.75;64.45
71915;BME280;60387;49.994;14.660;2022-11-20T00:33:48;97321.75;;;-1.71;64.55
71915;BME280;60387;49.994;14.660;2022-11-20T00:36:23;97326.91;;;-1.65;64.70
71915;BME280;60387;49.994;14.660;2022-11-20T00:38:58;97329.44;;;-1.58;64.21
71915;BME280;60387;49.994;14.660;2022-11-20T00:41:32;97327.72;;;-1.53;64.90
71915;BME280;60387;49.994;14.660;2022-11-20T00:44:05;97339.25;;;-1.47;64.39
71915;BME280;60387;49.994;14.660;2022-11-20T00:46:38;97334.84;;;-1.42;64.39
71915;BME280;60387;49.994;14.660;2022-11-20T00:49:11;97340.22;;;-1.37;64.75
71915;BME280;60387;49.994;14.660;2022-11-20T00:51:45;97328.69;;;-1.31;64.89
71915;BME280;60387;49.994;14.660;2022-11-20T00:54:18;97324.53;;;-1.27;64.26
71915;BME280;60387;49.994;14.660;2022-11-20T00:56:54;97323.09;;;-1.18;64.50
71915;BME280;60387;49.994;14.660;2022-11-20T00:59:27;97324.00;;;-1.12;64.42
71915;BME280;60387;49.994;14.660;2022-11-20T01:02:00;97327.06;;;-1.04;64.39
71915;BME280;60387;49.994;14.660;2022-11-20T01:04:34;97329.34;;;-0.96;64.17
71915;BME280;60387;49.994;14.660;2022-11-20T01:07:07;97328.97;;;-0.88;64.67
71915;BME280;60387;49.994;14.660;2022-11-20T01:09:40;97342.69;;;-0.79;64.50
71915;BME280;60387;49.994;14.660;2022-11-20T01:12:14;97338.03;;;-0.72;64.80
71915;BME280;60387;49.994;14.660;2022-11-20T01:14:47;97343.75;;;-0.64;64.01
71915;BME280;60387;49.994;14.660;2022-11-20T01:17:20;97337.22;;;-0.56;64.28
71915;BME280;60387;49.994;14.660;2022-11-20T01:19:53;97337.00;;;-0.55;64.56
71915;BME280;60387;49.994;14.660;2022-11-20T01:22:27;97336.09;;;-0.44;64.32
71915;BME280;60387;49.994;14.660;2022-11-20T01:25:00;97331.13;;;-0.40;64.18
71915;BME280;60387;49.994;14.660;2022-11-20T01:27:33;97325.66;;;-0.34;64.41
71915;BME280;60387;49.994;14.660;2022-11-20T01:30:07;97320.06;;;-0.32;64.58
71915;BME280;60387;49.994;14.660;2022-11-20T01:32:40;97328.69;;;-0.25;64.54
71915;BME280;60387;49.994;14.660;2022-11-20T01:35:13;97332.75;;;-0.23;64.72
71915;BME280;60387;49.994;14.660;2022-11-20T01:37:47;97329.34;;;-0.18;64.41
71915;BME280;60387;49.994;14.660;2022-11-20T01:40:20;97333.72;;;-0.12;64.55
71915;BME280;60387;49.994;14.660;2022-11-20T01:43:09;97327.06;;;-0.10;64.30
71915;BME280;60387;49.994;14.660;2022-11-20T01:48:21;97335.22;;;0.00;64.69
71915;BME280;60387;49.994;14.660;2022-11-20T01:50:57;97324.31;;;0.01;64.36
71915;BME280;60387;49.994;14.660;2022-11-20T01:53:33;97325.47;;;0.05;64.70
71915;BME280;60387;49.994;14.660;2022-11-20T01:56:09;97324.47;;;0.11;64.69
71915;BME280;60387;49.994;14.660;2022-11-20T01:58:49;97324.78;;;0.15;64.57
71915;BME280;60387;49.994;14.660;2022-11-20T02:01:24;97320.81;;;0.17;64.43
71915;BME280;60387;49.994;14.660;2022-11-20T02:03:58;97319.03;;;0.23;64.44
71915;BME280;60387;49.994;14.660;2022-11-20T02:06:35;97316.94;;;0.25;64.12
71915;BME280;60387;49.994;14.660;2022-11-20T02:09:09;97311.38;;;0.26;64.21
71915;BME280;60387;49.994;14.660;2022-11-20T02:11:43;97302.88;;;0.29;64.34
71915;BME280;60387;49.994;14.660;2022-11-20T02:14:16;97312.00;;;0.33;64.07
71915;BME280;60387;49.994;14.660;2022-11-20T02:16:50;97304.00;;;0.33;64.79
71915;BME280;60387;49.994;14.660;2022-11-20T02:22:16;97293.34;;;0.33;64.38
71915;BME280;60387;49.994;14.660;2022-11-20T02:24:51;97295.78;;;0.35;64.11
71915;BME280;60387;49.994;14.660;2022-11-20T02:27:25;97297.63;;;0.34;64.54
71915;BME280;60387;49.994;14.660;2022-11-20T02:30:04;97297.84;;;0.33;64.44
71915;BME280;60387;49.994;14.660;2022-11-20T02:32:39;97293.91;;;0.35;64.60
71915;BME280;60387;49.994;14.660;2022-11-20T02:37:54;97285.59;;;0.32;64.79
71915;BME280;60387;49.994;14.660;2022-11-20T02:40:28;97288.03;;;0.33;64.48
71915;BME280;60387;49.994;14.660;2022-11-20T02:43:02;97296.00;;;0.33;64.50
71915;BME280;60387;49.994;14.660;2022-11-20T02:45:35;97290.13;;;0.31;64.08
71915;BME280;60387;49.994;14.660;2022-11-20T02:48:08;97290.94;;;0.32;64.41
71915;BME280;60387;49.994;14.660;2022-11-20T02:50:42;97288.75;;;0.29;64.06
71915;BME280;60387;49.994;14.660;2022-11-20T02:53:15;97289.00;;;0.27;64.40
71915;BME280;60387;49.994;14.660;2022-11-20T02:55:48;97289.81;;;0.28;64.37
71915;BME280;60387;49.994;14.660;2022-11-20T02:58:21;97290.06;;;0.26;64.28
71915;BME280;60387;49.994;14.660;2022-11-20T03:00:55;97290.06;;;0.26;64.89
71915;BME280;60387;49.994;14.660;2022-11-20T03:03:28;97275.13;;;0.25;64.49
71915;BME280;60387;49.994;14.660;2022-11-20T03:06:01;97282.56;;;0.23;64.47
71915;BME280;60387;49.994;14.660;2022-11-20T03:08:35;97290.28;;;0.25;64.10
71915;BME280;60387;49.994;14.660;2022-11-20T03:11:08;97288.97;;;0.22;64.16
71915;BME280;60387;49.994;14.660;2022-11-20T03:13:42;97274.59;;;0.23;64.70
71915;BME280;60387;49.994;14.660;2022-11-20T03:16:18;97277.81;;;0.25;64.15
71915;BME280;60387;49.994;14.660;2022-11-20T03:18:52;97266.31;;;0.25;63.71
71915;BME280;60387;49.994;14.660;2022-11-20T03:21:25;97275.69;;;0.27;63.96
71915;BME280;60387;49.994;14.660;2022-11-20T03:23:58;97274.91;;;0.27;63.73
71915;BME280;60387;49.994;14.660;2022-11-20T03:26:32;97273.75;;;0.23;64.27
71915;BME280;60387;49.994;14.660;2022-11-20T03:29:05;97279.34;;;0.21;64.38
71915;BME280;60387;49.994;14.660;2022-11-20T03:31:40;97273.22;;;0.21;64.48
71915;BME280;60387;49.994;14.660;2022-11-20T03:34:13;97285.72;;;0.20;64.83
71915;BME280;60387;49.994;14.660;2022-11-20T03:36:47;97278.53;;;0.21;64.50
71915;BME280;60387;49.994;14.660;2022-11-20T03:39:20;97283.31;;;0.19;65.30
71915;BME280;60387;49.994;14.660;2022-11-20T03:41:53;97290.81;;;0.22;64.62
71915;BME280;60387;49.994;14.660;2022-11-20T03:44:26;97285.72;;;0.20;65.57
71915;BME280;60387;49.994;14.660;2022-11-20T03:47:00;97283.56;;;0.17;65.38
71915;BME280;60387;49.994;14.660;2022-11-20T03:49:33;97290.47;;;0.18;65.46
71915;BME280;60387;49.994;14.660;2022-11-20T03:52:06;97292.09;;;0.19;65.06
71915;BME280;60387;49.994;14.660;2022-11-20T03:54:39;97290.00;;;0.21;65.47
71915;BME280;60387;49.994;14.660;2022-11-20T03:57:12;97285.88;;;0.30;64.61
71915;BME280;60387;49.994;14.660;2022-11-20T03:59:46;97286.88;;;0.29;65.20
71915;BME280;60387;49.994;14.660;2022-11-20T04:02:19;97288.75;;;0.29;65.53
71915;BME280;60387;49.994;14.660;2022-11-20T04:04:52;97285.28;;;0.28;64.81
71915;BME280;60387;49.994;14.660;2022-11-20T04:07:25;97278.66;;;0.31;64.59
71915;BME280;60387;49.994;14.660;2022-11-20T04:09:59;97286.97;;;0.34;64.56
71915;BME280;60387;49.994;14.660;2022-11-20T04:12:32;97294.72;;;0.36;64.91
71915;BME280;60387;49.994;14.660;2022-11-20T04:15:06;97291.25;;;0.35;64.73
71915;BME280;60387;49.994;14.660;2022-11-20T04:17:39;97300.53;;;0.33;64.99
71915;BME280;60387;49.994;14.660;2022-11-20T04:20:12;97296.81;;;0.34;64.73
71915;BME280;60387;49.994;14.660;2022-11-20T04:22:46;97284.97;;;0.25;65.08
71915;BME280;60387;49.994;14.660;2022-11-20T04:25:19;97301.56;;;0.32;64.83
71915;BME280;60387;49.994;14.660;2022-11-20T04:27:52;97301.34;;;0.33;64.82
71915;BME280;60387;49.994;14.660;2022-11-20T04:30:25;97293.84;;;0.30;64.65
71915;BME280;60387;49.994;14.660;2022-11-20T04:32:59;97291.97;;;0.31;64.58
71915;BME280;60387;49.994;14.660;2022-11-20T04:35:35;97297.06;;;0.32;64.86
71915;BME280;60387;49.994;14.660;2022-11-20T04:38:08;97304.78;;;0.34;65.07
71915;BME280;60387;49.994;14.660;2022-11-20T04:40:42;97301.34;;;0.33;64.62
71915;BME280;60387;49.994;14.660;2022-11-20T04:43:15;97300.22;;;0.29;65.00
71915;BME280;60387;49.994;14.660;2022-11-20T04:45:55;97302.41;;;0.32;64.84
71915;BME280;60387;49.994;14.660;2022-11-20T04:48:29;97294.88;;;0.29;64.80
71915;BME280;60387;49.994;14.660;2022-11-20T04:51:03;97280.22;;;0.27;65.29
71915;BME280;60387;49.994;14.660;2022-11-20T04:53:36;97284.50;;;0.28;64.85
71915;BME280;60387;49.994;14.660;2022-11-20T04:56:12;97278.63;;;0.26;64.68
71915;BME280;60387;49.994;14.660;2022-11-20T04:58:45;97274.59;;;0.23;64.83
71915;BME280;60387;49.994;14.660;2022-11-20T05:01:20;97282.63;;;0.28;65.19
71915;BME280;60387;49.994;14.660;2022-11-20T05:03:54;97267.69;;;0.27;64.52
71915;BME280;60387;49.994;14.660;2022-11-20T05:06:27;97261.91;;;0.30;64.70
71915;BME280;60387;49.994;14.660;2022-11-20T05:09:00;97247.25;;;0.33;64.83
71915;BME280;60387;49.994;14.660;2022-11-20T05:11:34;97256.06;;;0.33;64.70
71915;BME280;60387;49.994;14.660;2022-11-20T05:14:07;97245.97;;;0.35;64.82
71915;BME280;60387;49.994;14.660;2022-11-20T05:16:40;97250.81;;;0.38;64.71
71915;BME280;60387;49.994;14.660;2022-11-20T05:19:14;97255.88;;;0.40;64.36
71915;BME280;60387;49.994;14.660;2022-11-20T05:21:47;97251.91;;;0.42;64.33
71915;BME280;60387;49.994;14.660;2022-11-20T05:24:20;97256.19;;;0.43;64.99
71915;BME280;60387;49.994;14.660;2022-11-20T05:26:53;97251.66;;;0.44;64.32
71915;BME280;60387;49.994;14.660;2022-11-20T05:29:27;97254.34;;;0.44;64.49
71915;BME280;60387;49.994;14.660;2022-11-20T05:32:00;97236.91;;;0.36;64.44
71915;BME280;60387;49.994;14.660;2022-11-20T05:34:33;97260.25;;;0.51;65.02
71915;BME280;60387;49.994;14.660;2022-11-20T05:37:06;97245.09;;;0.51;64.91
71915;BME280;60387;49.994;14.660;2022-11-20T05:39:40;97251.53;;;0.55;64.90
71915;BME280;60387;49.994;14.660;2022-11-20T05:42:13;97258.41;;;0.51;64.64
71915;BME280;60387;49.994;14.660;2022-11-20T05:44:46;97244.03;;;0.52;64.34
71915;BME280;60387;49.994;14.660;2022-11-20T05:47:19;97245.63;;;0.53;64.89
71915;BME280;60387;49.994;14.660;2022-11-20T05:49:53;97236.59;;;0.54;64.89
71915;BME280;60387;49.994;14.660;2022-11-20T05:52:29;97234.00;;;0.59;64.42
71915;BME280;60387;49.994;14.660;2022-11-20T05:55:03;97237.72;;;0.58;64.55
71915;BME280;60387;49.994;14.660;2022-11-20T05:57:36;97249.44;;;0.57;64.64
71915;BME280;60387;49.994;14.660;2022-11-20T06:00:10;97237.66;;;0.53;64.80
71915;BME280;60387;49.994;14.660;2022-11-20T06:02:43;97237.91;;;0.52;64.43
71915;BME280;60387;49.994;14.660;2022-11-20T06:05:17;97238.16;;;0.50;64.66
71915;BME280;60387;49.994;14.660;2022-11-20T06:07:50;97243.41;;;0.45;64.82
71915;BME280;60387;49.994;14.660;2022-11-20T06:10:23;97254.66;;;0.47;64.50
71915;BME280;60387;49.994;14.660;2022-11-20T06:12:57;97260.53;;;0.49;64.38
71915;BME280;60387;49.994;14.660;2022-11-20T06:15:31;97248.19;;;0.43;64.57
71915;BME280;60387;49.994;14.660;2022-11-20T06:18:04;97257.31;;;0.47;64.99
71915;BME280;60387;49.994;14.660;2022-11-20T06:20:37;97265.09;;;0.54;64.45
71915;BME280;60387;49.994;14.660;2022-11-20T06:23:11;97259.81;;;0.59;64.99
71915;BME280;60387;49.994;14.660;2022-11-20T06:25:44;97250.78;;;0.60;64.54
71915;BME280;60387;49.994;14.660;2022-11-20T06:28:17;97247.06;;;0.61;65.11
71915;BME280;60387;49.994;14.660;2022-11-20T06:30:50;97251.34;;;0.62;64.64
71915;BME280;60387;49.994;14.660;2022-11-20T06:33:24;97237.81;;;0.68;64.44
71915;BME280;60387;49.994;14.660;2022-11-20T06:35:59;97239.97;;;0.71;64.80
71915;BME280;60387;49.994;14.660;2022-11-20T06:38:32;97242.16;;;0.74;64.29
71915;BME280;60387;49.994;14.660;2022-11-20T06:41:07;97241.66;;;0.77;64.48
71915;BME280;60387;49.994;14.660;2022-11-20T06:43:40;97244.84;;;0.79;64.90
71915;BME280;60387;49.994;14.660;2022-11-20T06:46:15;97237.16;;;0.83;64.97
71915;BME280;60387;49.994;14.660;2022-11-20T06:48:49;97247.34;;;0.86;64.75
71915;BME280;60387;49.994;14.660;2022-11-20T06:51:22;97248.69;;;0.88;64.72
71915;BME280;60387;49.994;14.660;2022-11-20T06:53:56;97249.25;;;0.90;64.45
71915;BME280;60387;49.994;14.660;2022-11-20T06:56:29;97254.06;;;0.93;64.27
71915;BME280;60387;49.994;14.660;2022-11-20T06:59:06;97258.91;;;0.96;64.38
71915;BME280;60387;49.994;14.660;2022-11-20T07:01:40;97258.41;;;0.99;64.46
71915;BME280;60387;49.994;14.660;2022-11-20T07:04:13;97264.28;;;1.01;64.71
71915;BME280;60387;49.994;14.660;2022-11-20T07:06:46;97243.25;;;1.05;64.83
71915;BME280;60387;49.994;14.660;2022-11-20T07:09:19;97241.97;;;1.12;64.90
71915;BME280;60387;49.994;14.660;2022-11-20T07:11:52;97228.94;;;1.11;64.44
71915;BME280;60387;49.994;14.660;2022-11-20T07:14:26;97219.59;;;1.13;64.69
71915;BME280;60387;49.994;14.660;2022-11-20T07:16:59;97213.75;;;1.16;64.84
71915;BME280;60387;49.994;14.660;2022-11-20T07:19:32;97205.78;;;1.16;64.99
71915;BME280;60387;49.994;14.660;2022-11-20T07:22:05;97216.47;;;1.21;64.47
71915;BME280;60387;49.994;14.660;2022-11-20T07:24:39;97234.13;;;1.27;64.48
71915;BME280;60387;49.994;14.660;2022-11-20T07:27:12;97227.19;;;1.26;64.82
71915;BME280;60387;49.994;14.660;2022-11-20T07:29:45;97227.78;;;1.33;64.91
71915;BME280;60387;49.994;14.660;2022-11-20T07:32:19;97232.59;;;1.36;64.92
71915;BME280;60387;49.994;14.660;2022-11-20T07:34:52;97240.59;;;1.36;64.41
71915;BME280;60387;49.994;14.660;2022-11-20T07:37:25;97230.44;;;1.33;64.47
71915;BME280;60387;49.994;14.660;2022-11-20T07:39:58;97243.88;;;1.43;64.36
71915;BME280;60387;49.994;14.660;2022-11-20T07:42:34;97235.59;;;1.45;64.59
71915;BME280;60387;49.994;14.660;2022-11-20T07:45:08;97236.94;;;1.47;64.58
71915;BME280;60387;49.994;14.660;2022-11-20T07:47:41;97244.47;;;1.50;64.51
71915;BME280;60387;49.994;14.660;2022-11-20T07:50:15;97238.34;;;1.55;64.50
71915;BME280;60387;49.994;14.660;2022-11-20T07:52:48;97238.91;;;1.57;64.58
71915;BME280;60387;49.994;14.660;2022-11-20T07:55:22;97217.56;;;1.62;64.96
71915;BME280;60387;49.994;14.660;2022-11-20T07:57:56;97222.16;;;1.66;65.10
71915;BME280;60387;49.994;14.660;2022-11-20T08:00:29;97215.78;;;1.72;64.79
71915;BME280;60387;49.994;14.660;2022-11-20T08:03:04;97238.25;;;1.76;65.05
71915;BME280;60387;49.994;14.660;2022-11-20T08:05:37;97234.28;;;1.84;64.58
71915;BME280;60387;49.994;14.660;2022-11-20T08:08:10;97231.66;;;1.89;64.71
71915;BME280;60387;49.994;14.660;2022-11-20T08:10:44;97238.34;;;1.96;64.53
71915;BME280;60387;49.994;14.660;2022-11-20T08:13:17;97232.47;;;1.99;64.78
71915;BME280;60387;49.994;14.660;2022-11-20T08:15:50;97239.50;;;2.10;64.58
71915;BME280;60387;49.994;14.660;2022-11-20T08:18:24;97225.59;;;2.08;64.47
71915;BME280;60387;49.994;14.660;2022-11-20T08:20:57;97235.78;;;2.16;64.13
71915;BME280;60387;49.994;14.660;2022-11-20T08:23:30;97238.50;;;2.21;64.26
71915;BME280;60387;49.994;14.660;2022-11-20T08:26:04;97233.97;;;2.22;64.32
71915;BME280;60387;49.994;14.660;2022-11-20T08:28:37;97237.19;;;2.29;64.21
71915;BME280;60387;49.994;14.660;2022-11-20T08:31:10;97232.66;;;2.34;64.45
71915;BME280;60387;49.994;14.660;2022-11-20T08:33:44;97231.09;;;2.38;64.31
71915;BME280;60387;49.994;14.660;2022-11-20T08:36:18;97232.16;;;2.42;64.06
71915;BME280;60387;49.994;14.660;2022-11-20T08:38:53;97224.69;;;2.44;64.41
71915;BME280;60387;49.994;14.660;2022-11-20T08:41:27;97220.44;;;2.48;64.63
71915;BME280;60387;49.994;14.660;2022-11-20T08:44:03;97232.75;;;2.54;64.65
71915;BME280;60387;49.994;14.660;2022-11-20T08:46:39;97227.94;;;2.56;64.48
71915;BME280;60387;49.994;14.660;2022-11-20T08:49:13;97207.66;;;2.60;64.37
71915;BME280;60387;49.994;14.660;2022-11-20T08:51:47;97201.78;;;2.63;64.15
71915;BME280;60387;49.994;14.660;2022-11-20T08:54:20;97193.75;;;2.68;64.23
71915;BME280;60387;49.994;14.660;2022-11-20T08:56:53;97184.69;;;2.69;64.29
71915;BME280;60387;49.994;14.660;2022-11-20T08:59:27;97190.56;;;2.76;64.19
71915;BME280;60387;49.994;14.660;2022-11-20T09:02:00;97194.31;;;2.80;64.20
71915;BME280;60387;49.994;14.660;2022-11-20T09:04:33;97195.91;;;2.76;64.20
71915;BME280;60387;49.994;14.660;2022-11-20T09:07:06;97197.25;;;2.79;64.06
71915;BME280;60387;49.994;14.660;2022-11-20T09:09:40;97200.75;;;2.79;64.31
71915;BME280;60387;49.994;14.660;2022-11-20T09:12:13;97186.31;;;2.80;63.95
71915;BME280;60387;49.994;14.660;2022-11-20T09:14:46;97190.31;;;2.88;64.18
71915;BME280;60387;49.994;14.660;2022-11-20T09:17:19;97170.81;;;2.87;64.31
71915;BME280;60387;49.994;14.660;2022-11-20T09:19:53;97192.75;;;2.94;64.07
71915;BME280;60387;49.994;14.660;2022-11-20T09:22:26;97201.84;;;2.98;64.12
71915;BME280;60387;49.994;14.660;2022-11-20T09:24:59;97205.56;;;3.02;64.34
71915;BME280;60387;49.994;14.660;2022-11-20T09:27:32;97197.03;;;3.05;64.20
71915;BME280;60387;49.994;14.660;2022-11-20T09:30:06;97202.91;;;3.07;64.11
71915;BME280;60387;49.994;14.660;2022-11-20T09:32:40;97200.22;;;3.02;64.35
71915;BME280;60387;49.994;14.660;2022-11-20T09:35:13;97197.28;;;3.03;64.12
71915;BME280;60387;49.994;14.660;2022-11-20T09:37:46;97196.50;;;3.03;64.71
71915;BME280;60387;49.994;14.660;2022-11-20T09:40:28;97193.53;;;3.04;64.15
71915;BME280;60387;49.994;14.660;2022-11-20T09:51:39;97194.34;;;3.10;64.52
71915;BME280;60387;49.994;14.660;2022-11-20T09:54:19;97185.81;;;3.13;64.49
71915;BME280;60387;49.994;14.660;2022-11-20T09:56:58;97183.41;;;3.16;64.24
71915;BME280;60387;49.994;14.660;2022-11-20T09:59:36;97168.66;;;3.19;64.68
71915;BME280;60387;49.994;14.660;2022-11-20T10:05:06;97163.59;;;3.27;64.46
71915;BME280;60387;49.994;14.660;2022-11-20T10:07:44;97166.00;;;3.34;64.35
71915;BME280;60387;49.994;14.660;2022-11-20T10:10:54;97160.66;;;3.39;64.47
71915;BME280;60387;49.994;14.660;2022-11-20T10:16:42;97161.69;;;3.53;64.73
71915;BME280;60387;49.994;14.660;2022-11-20T10:30:13;97156.84;;;3.75;64.33
71915;BME280;60387;49.994;14.660;2022-11-20T10:32:50;97137.53;;;3.78;64.65
71915;BME280;60387;49.994;14.660;2022-11-20T10:35:39;97131.09;;;3.84;64.69
71915;BME280;60387;49.994;14.660;2022-11-20T10:38:23;97151.16;;;3.96;64.36
71915;BME280;60387;49.994;14.660;2022-11-20T10:41:01;97156.47;;;4.06;64.35
71915;BME280;60387;49.994;14.660;2022-11-20T10:43:35;97161.53;;;4.13;64.29
71915;BME280;60387;49.994;14.660;2022-11-20T10:46:14;97147.31;;;4.17;63.93
71915;BME280;60387;49.994;14.660;2022-11-20T10:48:49;97134.72;;;4.18;64.07
71915;BME280;60387;49.994;14.660;2022-11-20T10:52:02;97118.06;;;4.21;64.05
71915;BME280;60387;49.994;14.660;2022-11-20T10:54:50;97123.44;;;4.26;63.95
71915;BME280;60387;49.994;14.660;2022-11-20T11:02:49;97125.81;;;4.32;64.01
71915;BME280;60387;49.994;14.660;2022-11-20T11:05:48;97125.28;;;4.35;63.74
71915;BME280;60387;49.994;14.660;2022-11-20T11:08:35;97132.75;;;4.43;63.74
71915;BME280;60387;49.994;14.660;2022-11-20T11:11:20;97140.22;;;4.41;63.30
71915;BME280;60387;49.994;14.660;2022-11-20T11:14:10;97126.06;;;4.36;63.24
71915;BME280;60387;49.994;14.660;2022-11-20T11:16:56;97135.19;;;4.35;63.48
71915;BME280;60387;49.994;14.660;2022-11-20T11:19:29;97122.59;;;4.30;63.68
71915;BME280;60387;49.994;14.660;2022-11-20T11:22:11;97111.88;;;4.30;63.17
71915;BME280;60387;49.994;14.660;2022-11-20T11:24:52;97093.44;;;4.24;63.74
71915;BME280;60387;49.994;14.660;2022-11-20T11:27:26;97106.97;;;4.42;63.66
71915;BME280;60387;49.994;14.660;2022-11-20T11:30:12;97113.09;;;4.53;63.73
71915;BME280;60387;49.994;14.660;2022-11-20T11:32:46;97107.06;;;4.71;63.98
71915;BME280;60387;49.994;14.660;2022-11-20T11:35:24;97106.88;;;4.96;63.94
71915;BME280;60387;49.994;14.660;2022-11-20T11:38:14;97105.09;;;5.20;63.72
71915;BME280;60387;49.994;14.660;2022-11-20T11:40:49;97090.44;;;5.36;62.96
71915;BME280;60387;49.994;14.660;2022-11-20T11:43:25;97100.47;;;5.54;62.88
71915;BME280;60387;49.994;14.660;2022-11-20T11:45:59;97096.59;;;5.65;62.88
71915;BME280;60387;49.994;14.660;2022-11-20T11:48:32;97099.16;;;5.80;63.00
71915;BME280;60387;49.994;14.660;2022-11-20T11:51:08;97086.56;;;5.99;62.74
71915;BME280;60387;49.994;14.660;2022-11-20T11:53:42;97074.75;;;6.18;62.46
71915;BME280;60387;49.994;14.660;2022-11-20T11:56:16;97094.63;;;6.40;62.08
71915;BME280;60387;49.994;14.660;2022-11-20T11:58:52;97091.78;;;6.50;61.59
71915;BME280;60387;49.994;14.660;2022-11-20T12:04:28;97095.50;;;6.54;61.35
71915;BME280;60387;49.994;14.660;2022-11-20T12:10:07;97081.56;;;6.52;61.66
71915;BME280;60387;49.994;14.660;2022-11-20T12:12:50;97077.56;;;6.50;62.00
71915;BME280;60387;49.994;14.660;2022-11-20T12:15:32;97075.88;;;6.54;61.57
71915;BME280;60387;49.994;14.660;2022-11-20T12:18:24;97075.13;;;6.48;61.06
71915;BME280;60387;49.994;14.660;2022-11-20T12:21:17;97064.75;;;6.42;60.86
71915;BME280;60387;49.994;14.660;2022-11-20T12:39:00;97058.75;;;6.08;61.61
71915;BME280;60387;49.994;14.660;2022-11-20T12:41:49;97051.56;;;6.04;62.00
71915;BME280;60387;49.994;14.660;2022-11-20T13:01:39;97028.00;;;5.96;62.11
71915;BME280;60387;49.994;14.660;2022-11-20T13:07:02;97033.25;;;6.06;62.47
71915;BME280;60387;49.994;14.660;2022-11-20T13:09:42;97031.28;;;6.11;62.46
71915;BME280;60387;49.994;14.660;2022-11-20T13:12:28;97024.53;;;6.14;62.25
71915;BME280;60387;49.994;14.660;2022-11-20T13:15:35;97014.28;;;6.16;62.38
71915;BME280;60387;49.994;14.660;2022-11-20T13:18:13;97032.53;;;6.19;62.43
71915;BME280;60387;49.994;14.660;2022-11-20T13:20:47;97018.00;;;6.20;62.37
71915;BME280;60387;49.994;14.660;2022-11-20T13:23:27;97025.25;;;6.19;62.27
71915;BME280;60387;49.994;14.660;2022-11-20T13:29:18;97014.59;;;6.14;62.44
71915;BME280;60387;49.994;14.660;2022-11-20T13:32:22;97018.16;;;6.10;62.41
71915;BME280;60387;49.994;14.660;2022-11-20T13:34:57;97015.25;;;6.06;62.36
71915;BME280;60387;49.994;14.660;2022-11-20T13:37:34;97023.88;;;6.03;62.41
71915;BME280;60387;49.994;14.660;2022-11-20T13:42:46;97010.28;;;5.95;62.56
71915;BME280;60387;49.994;14.660;2022-11-20T13:45:27;97010.84;;;5.92;62.53
71915;BME280;60387;49.994;14.660;2022-11-20T13:48:19;96994.53;;;5.88;62.78
71915;BME280;60387;49.994;14.660;2022-11-20T13:51:07;96988.91;;;5.85;62.39
71915;BME280;60387;49.994;14.660;2022-11-20T13:56:38;97011.53;;;5.79;62.80
71915;BME280;60387;49.994;14.660;2022-11-20T14:02:18;97000.72;;;5.60;62.89
71915;BME280;60387;49.994;14.660;2022-11-20T14:04:54;96995.09;;;5.62;63.45
71915;BME280;60387;49.994;14.660;2022-11-20T14:07:39;97001.03;;;5.59;62.94
71915;BME280;60387;49.994;14.660;2022-11-20T14:10:25;97012.09;;;5.52;63.10
71915;BME280;60387;49.994;14.660;2022-11-20T14:13:10;97015.13;;;5.46;62.98
71915;BME280;60387;49.994;14.660;2022-11-20T14:15:43;97007.97;;;5.36;63.11
71915;BME280;60387;49.994;14.660;2022-11-20T14:18:20;97013.16;;;5.33;63.16
71915;BME280;60387;49.994;14.660;2022-11-20T14:20:54;96998.22;;;5.22;63.13
71915;BME280;60387;49.994;14.660;2022-11-20T14:23:28;96987.06;;;5.10;63.33
71915;BME280;60387;49.994;14.660;2022-11-20T14:26:02;96993.34;;;5.00;63.13
71915;BME280;60387;49.994;14.660;2022-11-20T14:28:35;96984.56;;;4.90;63.55
71915;BME280;60387;49.994;14.660;2022-11-20T14:31:23;96990.56;;;4.82;63.35
71915;BME280;60387;49.994;14.660;2022-11-20T14:33:57;96986.34;;;4.76;63.56
71915;BME280;60387;49.994;14.660;2022-11-20T14:36:31;96976.16;;;4.73;63.69
71915;BME280;60387;49.994;14.660;2022-11-20T14:39:04;96964.41;;;4.69;63.75
71915;BME280;60387;49.994;14.660;2022-11-20T14:41:37;96989.00;;;4.76;63.83
71915;BME280;60387;49.994;14.660;2022-11-20T14:44:11;97000.75;;;4.80;63.59
71915;BME280;60387;49.994;14.660;2022-11-20T14:46:44;96993.81;;;4.79;64.08
71915;BME280;60387;49.994;14.660;2022-11-20T14:49:17;96997.31;;;4.79;64.10
71915;BME280;60387;49.994;14.660;2022-11-20T14:52:02;97005.34;;;4.79;63.95
71915;BME280;60387;49.994;14.660;2022-11-20T14:54:55;97000.53;;;4.76;63.94
71915;BME280;60387;49.994;14.660;2022-11-20T14:57:33;96998.16;;;4.75;63.99
71915;BME280;60387;49.994;14.660;2022-11-20T15:02:46;96993.63;;;4.70;64.19
71915;BME280;60387;49.994;14.660;2022-11-20T15:05:22;97002.97;;;4.73;64.00
71915;BME280;60387;49.994;14.660;2022-11-20T15:08:07;97004.88;;;4.72;63.97
71915;BME280;60387;49.994;14.660;2022-11-20T15:10:49;97005.66;;;4.73;64.07
71915;BME280;60387;49.994;14.660;2022-11-20T15:13:31;97009.38;;;4.77;63.93
71915;BME280;60387;49.994;14.660;2022-11-20T15:16:17;97002.44;;;4.76;63.85
71915;BME280;60387;49.994;14.660;2022-11-20T15:18:51;97005.63;;;4.78;63.96